Time;durP1;ratioP1;P1;durP2;ratioP2;P2;SDS_P1;SDS_P2;PMS_P1;PMS_P2;Temp;Humidity;BMP_temperature;BMP_pressure;BME280_temperature;BME280_humidity;BME280_pressure;Samples;Min_cycle;Max_cycle;Signal;HPM_P1;HPM_P2
2021/10/05 00:01:42;;;;;;;10.07;7.43;;;;;;;;;;5032648;28;20048;-75
2021/10/05 00:04:09;;;;;;;12.63;7.70;;;;;;;;;;5033197;28;20387;-77
2021/10/05 00:06:37;;;;;;;8.18;6.93;;;;;;;;;;5032775;28;20121;-72
2021/10/05 00:09:06;;;;;;;11.00;7.90;;;;;;;;;;5015666;28;20132;-74
2021/10/05 00:11:34;;;;;;;16.10;9.00;;;;;;;;;;5032834;28;20076;-72
2021/10/05 00:14:05;;;;;;;8.10;7.15;;;;;;;;;;5032208;28;20046;-72
2021/10/05 00:16:32;;;;;;;8.65;7.75;;;;;;;;;;5032677;28;20532;-77
2021/10/05 00:19:01;;;;;;;8.88;7.97;;;;;;;;;;5032608;28;20139;-74
2021/10/05 00:21:28;;;;;;;9.70;7.13;;;;;;;;;;5015390;28;20045;-72
2021/10/05 00:23:56;;;;;;;10.40;8.40;;;;;;;;;;5015207;28;20053;-72
2021/10/05 00:26:23;;;;;;;9.63;8.02;;;;;;;;;;5033265;28;20386;-77
2021/10/05 00:28:51;;;;;;;9.77;7.97;;;;;;;;;;5032595;28;20051;-72
2021/10/05 00:31:19;;;;;;;8.13;7.32;;;;;;;;;;5032681;28;20152;-75
2021/10/05 00:33:48;;;;;;;8.77;7.88;;;;;;;;;;5032501;28;20049;-75
2021/10/05 00:36:18;;;;;;;8.65;7.68;;;;;;;;;;5032342;28;20048;-75
2021/10/05 00:38:46;;;;;;;9.38;8.23;;;;;;;;;;5033703;28;20410;-77
2021/10/05 00:41:16;;;;;;;9.25;8.25;;;;;;;;;;5036857;28;20045;-74
2021/10/05 00:43:44;;;;;;;10.93;8.68;;;;;;;;;;5036069;28;20410;-77
2021/10/05 00:46:11;;;;;;;11.70;8.18;;;;;;;;;;5036292;28;20041;-77
2021/10/05 00:48:39;;;;;;;10.13;8.20;;;;;;;;;;5035855;28;20111;-75
2021/10/05 00:51:06;;;;;;;10.02;8.20;;;;;;;;;;5036223;28;20041;-72
2021/10/05 00:53:35;;;;;;;10.02;8.68;;;;;;;;;;5036293;28;20405;-74
2021/10/05 00:56:03;;;;;;;10.07;8.93;;;;;;;;;;5036084;28;20038;-72
2021/10/05 00:58:32;;;;;;;11.73;8.50;;;;;;;;;;5035974;28;20091;-75
2021/10/05 01:01:00;;;;;;;10.95;8.68;;;;;;;;;;5002160;28;20156;-77
2021/10/05 01:03:27;;;;;;;9.93;8.73;;;;;;;;;;5019007;28;20033;-72
2021/10/05 01:05:58;;;;;;;9.15;7.40;;;;;;;;;;5036713;28;20041;-73
2021/10/05 01:08:25;;;;;;;9.10;8.20;;;;;;;;;;5018483;28;20412;-72
2021/10/05 01:10:54;;;;;;;10.90;9.82;;;;;;;;;;5035750;28;20041;-73
2021/10/05 01:13:22;;;;;;;11.38;9.20;;;;;;;;;;5017761;28;20052;-77
2021/10/05 01:15:51;;;;;;;10.20;9.05;;;;;;;;;;5018349;28;20564;-77
2021/10/05 01:18:23;;;;;;;10.85;9.75;;;;;;;;;;5036144;28;20044;-74
2021/10/05 01:21:02;;;;;;;11.32;8.90;;;;;;;;;;5036007;28;20064;-77
2021/10/05 01:23:30;;;;;;;11.50;9.13;;;;;;;;;;5035946;28;20505;-77
2021/10/05 01:25:57;;;;;;;9.40;8.27;;;;;;;;;;5035972;28;20069;-75
2021/10/05 01:28:25;;;;;;;11.85;9.18;;;;;;;;;;5036055;28;20368;-72
2021/10/05 01:30:56;;;;;;;12.43;9.32;;;;;;;;;;5035506;28;20128;-75
2021/10/05 01:33:25;;;;;;;13.93;9.30;;;;;;;;;;5018431;28;20128;-77
2021/10/05 01:35:54;;;;;;;10.45;8.77;;;;;;;;;;5018237;28;20494;-75
2021/10/05 01:38:22;;;;;;;10.75;9.60;;;;;;;;;;5035584;28;20041;-72
2021/10/05 01:40:50;;;;;;;13.20;9.52;;;;;;;;;;5035391;28;20046;-72
2021/10/05 01:43:17;;;;;;;13.80;9.85;;;;;;;;;;5035620;28;20047;-75
2021/10/05 01:45:49;;;;;;;10.68;8.90;;;;;;;;;;5035905;28;20052;-77
2021/10/05 01:48:20;;;;;;;13.10;8.65;;;;;;;;;;5035495;28;20053;-72
2021/10/05 01:50:48;;;;;;;9.80;8.25;;;;;;;;;;5034146;28;20045;-75
2021/10/05 01:53:17;;;;;;;10.48;9.05;;;;;;;;;;5035320;28;20053;-74
2021/10/05 01:55:44;;;;;;;13.10;9.38;;;;;;;;;;5035208;28;20042;-73
2021/10/05 01:58:14;;;;;;;9.85;8.85;;;;;;;;;;5035177;28;20041;-73
2021/10/05 02:00:41;;;;;;;10.63;8.63;;;;;;;;;;5035306;28;20037;-74
2021/10/05 02:03:13;;;;;;;12.90;8.90;;;;;;;;;;5035548;28;20061;-72
2021/10/05 02:05:45;;;;;;;12.52;8.35;;;;;;;;;;5034874;28;20045;-73
2021/10/05 02:08:13;;;;;;;10.77;8.00;;;;;;;;;;5035104;28;20045;-77
2021/10/05 02:10:40;;;;;;;8.95;8.05;;;;;;;;;;5034430;28;20041;-73
2021/10/05 02:13:08;;;;;;;11.60;7.90;;;;;;;;;;5017303;28;20041;-77
2021/10/05 02:15:38;;;;;;;9.70;7.72;;;;;;;;;;5016950;28;20045;-77
2021/10/05 02:18:06;;;;;;;8.63;7.65;;;;;;;;;;5034691;28;20486;-77
2021/10/05 02:20:34;;;;;;;8.95;8.05;;;;;;;;;;5016834;28;20041;-75
2021/10/05 02:23:02;;;;;;;10.20;8.70;;;;;;;;;;5016877;28;20132;-77
2021/10/05 02:25:29;;;;;;;10.35;8.68;;;;;;;;;;5034249;28;20478;-74
2021/10/05 02:27:59;;;;;;;10.75;8.38;;;;;;;;;;5034947;28;20453;-72
2021/10/05 02:30:29;;;;;;;10.75;8.27;;;;;;;;;;5034537;28;20041;-75
2021/10/05 02:32:57;;;;;;;11.55;8.60;;;;;;;;;;5016778;28;20453;-77
2021/10/05 02:35:24;;;;;;;12.88;8.40;;;;;;;;;;5034599;28;20034;-74
2021/10/05 02:37:52;;;;;;;10.23;8.75;;;;;;;;;;5034716;28;20124;-72
2021/10/05 02:40:20;;;;;;;10.70;8.95;;;;;;;;;;5016662;28;20386;-74
2021/10/05 02:42:50;;;;;;;10.23;8.88;;;;;;;;;;5034844;28;20037;-77
2021/10/05 02:45:18;;;;;;;14.38;9.52;;;;;;;;;;5034688;28;20454;-74
2021/10/05 02:47:46;;;;;;;9.40;8.38;;;;;;;;;;5034227;28;20053;-74
2021/10/05 02:50:17;;;;;;;10.85;8.95;;;;;;;;;;5016355;28;20049;-74
2021/10/05 02:52:44;;;;;;;11.30;8.25;;;;;;;;;;5016683;28;20060;-72
2021/10/05 02:55:12;;;;;;;10.40;8.70;;;;;;;;;;5033988;28;20395;-74
2021/10/05 02:57:41;;;;;;;9.77;8.63;;;;;;;;;;5034267;28;20046;-77
2021/10/05 03:00:13;;;;;;;9.50;8.02;;;;;;;;;;5033916;28;20152;-77
2021/10/05 03:02:41;;;;;;;9.40;7.97;;;;;;;;;;5016446;28;20049;-77
2021/10/05 03:05:09;;;;;;;11.13;7.55;;;;;;;;;;5034251;28;20056;-77
2021/10/05 03:07:39;;;;;;;9.65;8.45;;;;;;;;;;5033802;28;20053;-75
2021/10/05 03:10:08;;;;;;;11.85;9.00;;;;;;;;;;5016388;28;20132;-78
2021/10/05 03:12:36;;;;;;;13.50;9.13;;;;;;;;;;5033775;28;20128;-72
2021/10/05 03:15:04;;;;;;;11.57;9.30;;;;;;;;;;5033477;28;20041;-77
2021/10/05 03:17:35;;;;;;;11.35;9.48;;;;;;;;;;5016207;28;20056;-78
2021/10/05 03:20:03;;;;;;;12.30;8.02;;;;;;;;;;5033727;28;20041;-75
2021/10/05 03:22:30;;;;;;;9.48;8.50;;;;;;;;;;5015554;28;20077;-77
2021/10/05 03:24:57;;;;;;;9.30;8.30;;;;;;;;;;5034040;28;20064;-75
2021/10/05 03:27:25;;;;;;;11.15;7.70;;;;;;;;;;5033832;28;20034;-72
2021/10/05 03:29:53;;;;;;;8.93;8.02;;;;;;;;;;5016097;28;20132;-77
2021/10/05 03:32:21;;;;;;;9.27;7.82;;;;;;;;;;5033568;28;20044;-73
2021/10/05 03:34:49;;;;;;;10.63;8.15;;;;;;;;;;5033573;28;20041;-75
2021/10/05 03:37:17;;;;;;;11.73;8.15;;;;;;;;;;5015575;28;20055;-75
2021/10/05 03:39:44;;;;;;;10.48;7.93;;;;;;;;;;5033599;28;20033;-74
2021/10/05 03:42:12;;;;;;;10.07;7.60;;;;;;;;;;5015911;28;20426;-72
2021/10/05 03:44:40;;;;;;;12.10;7.57;;;;;;;;;;5033553;28;20053;-77
2021/10/05 03:47:08;;;;;;;9.65;7.50;;;;;;;;;;5011736;28;20137;-74
2021/10/05 03:49:37;;;;;;;10.52;8.35;;;;;;;;;;5032552;28;20045;-72
2021/10/05 03:52:04;;;;;;;10.13;7.63;;;;;;;;;;5032808;28;20048;-75
2021/10/05 03:54:34;;;;;;;14.23;8.32;;;;;;;;;;5033094;28;20042;-72
2021/10/05 03:57:04;;;;;;;8.43;7.45;;;;;;;;;;5032895;28;20041;-75
2021/10/05 03:59:33;;;;;;;11.25;8.43;;;;;;;;;;5033261;28;20148;-73
2021/10/05 04:02:00;;;;;;;12.25;8.82;;;;;;;;;;5033131;28;20120;-75
2021/10/05 04:04:28;;;;;;;11.05;8.15;;;;;;;;;;5033343;28;20452;-75
2021/10/05 04:06:56;;;;;;;12.25;9.00;;;;;;;;;;5015475;28;20120;-77
2021/10/05 04:09:27;;;;;;;12.85;9.00;;;;;;;;;;5033079;28;20037;-77
2021/10/05 04:11:59;;;;;;;11.32;8.65;;;;;;;;;;5014887;28;20506;-74
2021/10/05 04:14:26;;;;;;;12.57;9.15;;;;;;;;;;5032301;28;20048;-74
2021/10/05 04:16:54;;;;;;;12.27;9.35;;;;;;;;;;5033091;28;20037;-72
2021/10/05 04:19:22;;;;;;;12.68;9.00;;;;;;;;;;5032816;28;20047;-77
2021/10/05 04:21:50;;;;;;;10.80;8.75;;;;;;;;;;5014983;28;20049;-74
2021/10/05 04:24:18;;;;;;;11.88;8.60;;;;;;;;;;5033213;28;20048;-74
2021/10/05 04:26:47;;;;;;;15.73;8.15;;;;;;;;;;5033179;28;20403;-72
2021/10/05 04:29:15;;;;;;;14.07;8.27;;;;;;;;;;5014883;28;20100;-73
2021/10/05 04:31:43;;;;;;;12.38;8.50;;;;;;;;;;5032784;28;20041;-74
2021/10/05 04:34:11;;;;;;;10.45;8.10;;;;;;;;;;5032613;28;20041;-75
2021/10/05 04:36:40;;;;;;;10.65;7.97;;;;;;;;;;5032318;28;20504;-77
2021/10/05 04:39:09;;;;;;;13.77;8.43;;;;;;;;;;5015173;28;20041;-77
2021/10/05 04:41:37;;;;;;;13.80;7.90;;;;;;;;;;5032999;28;20068;-72
2021/10/05 04:44:05;;;;;;;12.40;8.10;;;;;;;;;;5032937;28;20046;-72
2021/10/05 04:46:33;;;;;;;10.85;8.07;;;;;;;;;;5015245;28;20053;-74
2021/10/05 04:49:00;;;;;;;11.20;8.02;;;;;;;;;;5014746;28;20097;-74
2021/10/05 04:51:28;;;;;;;13.30;10.32;;;;;;;;;;5032175;28;20037;-75
2021/10/05 04:53:56;;;;;;;13.80;9.88;;;;;;;;;;5032193;28;20453;-77
2021/10/05 04:56:24;;;;;;;14.52;8.48;;;;;;;;;;5032460;28;20145;-75
2021/10/05 04:58:52;;;;;;;12.25;8.48;;;;;;;;;;5015161;28;20045;-77
2021/10/05 05:01:21;;;;;;;13.25;9.10;;;;;;;;;;5032311;28;20052;-74
2021/10/05 05:03:49;;;;;;;11.05;8.82;;;;;;;;;;5032319;28;20041;-72
2021/10/05 05:06:17;;;;;;;13.88;9.55;;;;;;;;;;5032379;28;20095;-72
2021/10/05 05:08:48;;;;;;;15.15;9.45;;;;;;;;;;5032110;28;20064;-77
2021/10/05 05:11:15;;;;;;;18.92;10.05;;;;;;;;;;5032073;28;20073;-74
2021/10/05 05:13:43;;;;;;;16.48;9.88;;;;;;;;;;5014531;28;20041;-78
2021/10/05 05:16:10;;;;;;;14.13;8.70;;;;;;;;;;5032048;28;20063;-74
2021/10/05 05:18:41;;;;;;;17.63;11.40;;;;;;;;;;5032019;28;20037;-74
2021/10/05 05:21:11;;;;;;;16.52;11.63;;;;;;;;;;5031866;28;20068;-77
2021/10/05 05:23:39;;;;;;;14.27;10.70;;;;;;;;;;5029569;28;20048;-78
2021/10/05 05:26:09;;;;;;;18.27;11.45;;;;;;;;;;5033029;28;20068;-78
2021/10/05 05:28:38;;;;;;;16.98;12.02;;;;;;;;;;5035812;28;20047;-77
2021/10/05 05:31:05;;;;;;;12.10;10.57;;;;;;;;;;5035435;28;20052;-74
2021/10/05 05:33:37;;;;;;;17.67;12.32;;;;;;;;;;5035932;28;20051;-79
2021/10/05 05:36:04;;;;;;;20.08;11.98;;;;;;;;;;5017916;28;20521;-78
2021/10/05 05:38:32;;;;;;;16.40;11.32;;;;;;;;;;5035892;28;20064;-77
2021/10/05 05:41:00;;;;;;;15.65;9.68;;;;;;;;;;5025261;28;20049;-74
2021/10/05 05:43:27;;;;;;;12.38;8.60;;;;;;;;;;5034668;28;20041;-73
2021/10/05 05:45:55;;;;;;;13.52;8.70;;;;;;;;;;5035952;28;20494;-78
2021/10/05 05:48:23;;;;;;;10.73;8.90;;;;;;;;;;5017495;28;20049;-76
2021/10/05 05:50:50;;;;;;;12.73;9.73;;;;;;;;;;5035231;28;20112;-74
2021/10/05 05:53:20;;;;;;;14.18;8.60;;;;;;;;;;5034560;28;20037;-74
2021/10/05 05:55:48;;;;;;;19.05;9.48;;;;;;;;;;5015940;28;20064;-73
2021/10/05 05:58:19;;;;;;;20.20;12.40;;;;;;;;;;5034233;28;20137;-74
2021/10/05 06:00:47;;;;;;;17.85;11.10;;;;;;;;;;5034329;28;20489;-78
2021/10/05 06:03:17;;;;;;;19.95;9.50;;;;;;;;;;5034378;28;20045;-74
2021/10/05 06:05:45;;;;;;;15.90;10.10;;;;;;;;;;5034997;28;20120;-78
2021/10/05 06:08:14;;;;;;;14.80;9.27;;;;;;;;;;5034645;28;20394;-75
2021/10/05 06:10:42;;;;;;;15.38;9.85;;;;;;;;;;5034509;28;20042;-78
2021/10/05 06:13:11;;;;;;;14.30;9.45;;;;;;;;;;5034832;28;20096;-78
2021/10/05 06:15:39;;;;;;;16.08;8.90;;;;;;;;;;5034711;28;20124;-80
2021/10/05 06:18:08;;;;;;;20.33;9.32;;;;;;;;;;5033918;28;20045;-74
2021/10/05 06:20:36;;;;;;;15.35;9.30;;;;;;;;;;5034243;28;20434;-75
2021/10/05 06:23:05;;;;;;;13.75;8.10;;;;;;;;;;5034190;28;20123;-74
2021/10/05 06:25:39;;;;;;;13.52;8.07;;;;;;;;;;5013543;28;20344;-74
2021/10/05 06:28:09;;;;;;;12.95;7.85;;;;;;;;;;5034473;28;20045;-75
2021/10/05 06:30:37;;;;;;;13.98;8.23;;;;;;;;;;5033818;28;20045;-78
2021/10/05 06:33:06;;;;;;;11.00;7.55;;;24.70;82.20;;;;;;5032606;28;20045;-77
2021/10/05 06:35:33;;;;;;;12.60;7.78;;;;;;;;;;5033820;28;20048;-78
2021/10/05 06:38:01;;;;;;;14.73;8.18;;;;;;;;;;5033113;28;20044;-74
2021/10/05 06:40:30;;;;;;;14.85;7.32;;;;;;;;;;5034197;28;20047;-77
2021/10/05 06:42:58;;;;;;;9.98;6.10;;;;;;;;;;5034396;28;20037;-74
2021/10/05 06:45:29;;;;;;;11.40;6.40;;;;;;;;;;5033476;28;20443;-74
2021/10/05 06:47:57;;;;;;;14.15;6.93;;;;;;;;;;5023484;28;20061;-74
2021/10/05 06:50:25;;;;;;;9.70;6.10;;;;;;;;;;5006894;28;20417;-74
2021/10/05 06:52:53;;;;;;;7.90;6.32;;;;;;;;;;5026330;28;20037;-77
2021/10/05 06:55:24;;;;;;;9.55;5.97;;;;;;;;;;5034225;28;20087;-74
2021/10/05 06:57:51;;;;;;;7.90;5.18;;;;;;;;;;5034012;28;20041;-74
2021/10/05 07:00:19;;;;;;;8.70;5.57;;;;;;;;;;5033296;28;20051;-77
2021/10/05 07:02:47;;;;;;;9.23;5.70;;;;;;;;;;5033817;28;20124;-74
2021/10/05 07:05:20;;;;;;;7.78;5.53;;;;;;;;;;5034075;28;20041;-77
2021/10/05 07:07:48;;;;;;;8.07;5.60;;;;;;;;;;5030506;28;20049;-74
2021/10/05 07:10:20;;;;;;;7.10;4.38;;;;;;;;;;5018764;28;20050;-74
2021/10/05 07:12:48;;;;;;;9.98;5.55;;;;;;;;;;5013878;28;20042;-74
2021/10/05 07:15:18;;;;;;;7.57;5.07;;;;;;;;;;4995937;28;20552;-78
2021/10/05 07:17:46;;;;;;;7.03;5.00;;;;;;;;;;5014082;28;20072;-74
2021/10/05 07:20:30;;;;;;;6.03;5.18;;;;;;;;;;5013800;28;20561;-74
2021/10/05 07:23:06;;;;;;;10.32;5.35;;;;;;;;;;5013801;28;20125;-78
2021/10/05 07:25:33;;;;;;;7.65;5.00;;;;;;;;;;5016513;28;20045;-77
2021/10/05 07:28:01;;;;;;;7.78;4.63;;;;;;;;;;4982568;28;20042;-77
2021/10/05 07:30:28;;;;;;;6.90;5.18;;;;;;;;;;5013660;28;20045;-74
2021/10/05 07:32:58;;;;;;;9.63;5.07;;;;;;;;;;5013629;28;20054;-77
2021/10/05 07:35:26;;;;;;;11.15;5.10;;;;;;;;;;4996637;28;20168;-77
2021/10/05 07:37:55;;;;;;;10.07;4.60;;;;;;;;;;4996594;28;20503;-76
2021/10/05 07:40:23;;;;;;;7.15;4.60;;;;;;;;;;4995919;28;20386;-77
2021/10/05 07:42:53;;;;;;;7.07;4.30;;;;;;;;;;4997247;28;20514;-76
2021/10/05 07:45:21;;;;;;;7.50;4.15;;;;;;;;;;5030091;28;20053;-72
2021/10/05 07:47:49;;;;;;;8.38;4.20;;;;;;;;;;5032976;28;20052;-73
2021/10/05 07:50:18;;;;;;;7.75;4.63;;;;;;;;;;5032780;28;20491;-71
2021/10/05 07:52:49;;;;;;;8.45;3.75;;;;;;;;;;5033135;28;20041;-72
2021/10/05 07:55:19;;;;;;;8.20;4.35;;;;;;;;;;5033186;28;20362;-71
2021/10/05 07:57:46;;;;;;;4.25;3.78;;;;;;;;;;5032826;28;20034;-72
2021/10/05 08:00:14;;;;;;;5.85;3.53;;;;;;;;;;5032718;28;20049;-75
2021/10/05 08:02:44;;;;;;;9.02;3.70;;;;;;;;;;5029287;28;20037;-75
2021/10/05 08:05:15;;;;;;;7.35;4.35;;;;;;;;;;5000950;28;20046;-71
2021/10/05 08:07:44;;;;;;;6.53;4.53;;;;;;;;;;5024085;28;20117;-76
2021/10/05 08:10:11;;;;;;;15.50;7.03;;;;;;;;;;5030219;28;20095;-71
2021/10/05 08:12:40;;;;;;;12.95;8.02;;;;;;;;;;5032481;28;20112;-73
2021/10/05 08:15:08;;;;;;;11.68;6.50;;;;;;;;;;5015355;28;20046;-73
2021/10/05 08:17:36;;;;;;;21.00;7.88;;;;;;;;;;5000869;28;20042;-74
2021/10/05 08:20:04;;;;;;;15.95;7.45;;;;;;;;;;5012959;28;20121;-72
2021/10/05 08:22:32;;;;;;;14.75;7.90;;;;;;;;;;5013092;28;20090;-71
2021/10/05 08:25:01;;;;;;;12.07;7.68;;;;;;;;;;4995725;28;20042;-74
2021/10/05 08:27:28;;;;;;;19.58;7.30;;;;;;;;;;5012586;28;20042;-71
2021/10/05 08:29:56;;;;;;;20.77;7.38;;;;;;;;;;5017101;28;20450;-71
2021/10/05 08:32:23;;;;;;;12.60;7.90;;;;;;;;;;5029793;28;20046;-74
2021/10/05 08:34:51;;;;;;;13.52;7.20;;;;;;;;;;5026111;28;20128;-71
2021/10/05 08:37:18;;;;;;;15.32;8.10;;;;;;;;;;5023086;28;20033;-73
2021/10/05 08:39:47;;;;;;;15.65;6.30;;;;;;;;;;5018212;28;20033;-71
2021/10/05 08:42:15;;;;;;;10.77;6.15;;;;;;;;;;5027798;28;20403;-73
2021/10/05 08:44:44;;;;;;;3.85;2.60;;;;;;;;;;5032581;28;20034;-73
2021/10/05 08:47:11;;;;;;;12.40;6.50;;;;;;;;;;5029911;28;20047;-73
2021/10/05 08:49:39;;;;;;;4.60;3.70;;;;;;;;;;5025724;28;20407;-72
2021/10/05 08:52:07;;;;;;;4.72;2.60;;;;;;;;;;5032777;28;20108;-71
2021/10/05 08:54:34;;;;;;;5.00;3.33;;;;;;;;;;5032495;28;20056;-71
2021/10/05 08:57:02;;;;;;;5.65;2.67;;;;;;;;;;5031775;28;20124;-72
2021/10/05 08:59:30;;;;;;;4.45;2.00;;;;;;;;;;5029629;28;20030;-72
2021/10/05 09:01:57;;;;;;;3.80;2.15;;;;;;;;;;5024562;28;20033;-73
2021/10/05 09:04:33;;;;;;;5.97;1.95;;;;;;;;;;5016306;28;20121;-73
2021/10/05 09:07:00;;;;;;;6.40;2.17;;;;;;;;;;5016616;28;20387;-72
2021/10/05 09:09:27;;;;;;;4.47;2.20;;;;;;;;;;5021439;28;20112;-73
2021/10/05 09:11:55;;;;;;;2.70;2.35;;;;;;;;;;5025285;28;20045;-73
2021/10/05 09:14:37;;;;;;;4.75;2.47;;;;;;;;;;5025311;28;20120;-72
2021/10/05 09:17:04;;;;;;;6.45;2.90;;;;;;;;;;5030615;28;20038;-71
2021/10/05 09:19:32;;;;;;;5.70;3.08;;;;;;;;;;5016423;28;20052;-74
2021/10/05 09:22:04;;;;;;;6.30;3.08;;;;;;;;;;5016216;28;20153;-73
2021/10/05 09:24:35;;;;;;;4.43;3.00;;;;;;;;;;5015961;28;20034;-72
2021/10/05 09:27:04;;;;;;;5.15;3.25;;;;;;;;;;5016011;28;20551;-71
2021/10/05 09:29:33;;;;;;;4.18;2.97;;;;;;;;;;5016302;28;20041;-70
2021/10/05 09:32:00;;;;;;;6.47;3.20;;;;;;;;;;5025143;28;20045;-71
2021/10/05 09:34:44;;;;;;;9.73;3.70;;;;;;;;;;5025892;28;20046;-72
2021/10/05 09:37:12;;;;;;;5.53;3.05;;;;;;;;;;5015591;28;20042;-72
2021/10/05 09:39:42;;;;;;;3.75;2.80;;;;;;;;;;5017696;28;20042;-70
2021/10/05 09:42:11;;;;;;;6.43;2.90;;;;;;;;;;5015549;28;20054;-70
2021/10/05 09:44:39;;;;;;;4.28;2.95;;;;;;;;;;5015844;28;20048;-71
2021/10/05 09:47:09;;;;;;;6.38;3.10;;;;;;;;;;5031349;28;20046;-71
2021/10/05 09:49:40;;;;;;;5.70;3.05;;;;;;;;;;5029024;28;20076;-71
2021/10/05 09:52:11;;;;;;;3.95;2.95;;;;;;;;;;5024220;28;20121;-72
2021/10/05 09:54:40;;;;;;;5.95;2.50;;;;;;;;;;5025621;28;20045;-73
2021/10/05 09:57:10;;;;;;;6.38;2.90;;;;;;;;;;5014519;28;20045;-70
2021/10/05 09:59:38;;;;;;;7.60;3.13;;;;;;;;;;5015491;28;20061;-71
2021/10/05 10:02:12;;;;;;;10.23;3.67;;;;;;;;;;5014073;28;20053;-70
2021/10/05 10:04:40;;;;;;;7.32;3.53;;;;;;;;;;5015094;28;20038;-71
2021/10/05 10:07:08;;;;;;;5.00;3.17;;;;;;;;;;5015105;28;20125;-71
2021/10/05 10:09:38;;;;;;;5.43;3.35;;;;;;;;;;5020922;28;20050;-73
2021/10/05 10:12:06;;;;;;;8.75;3.95;;;;;;;;;;5025370;28;20475;-73
2021/10/05 10:14:34;;;;;;;4.80;3.25;;;;;;;;;;5034680;28;20119;-72
2021/10/05 10:17:04;;;;;;;5.22;3.42;;;;;;;;;;5034554;28;20115;-73
2021/10/05 10:19:36;;;;;;;8.68;2.83;;;;;;;;;;5034794;28;20125;-70
2021/10/05 10:22:07;;;;;;;5.43;2.72;;;;;;;;;;5028520;28;20038;-72
2021/10/05 10:24:45;;;;;;;5.78;4.07;;;;;;;;;;5025530;28;20044;-74
2021/10/05 10:27:13;;;;;;;8.40;5.20;;;;;;;;;;5015225;28;20096;-72
2021/10/05 10:30:06;;;;;;;3.30;2.90;;;;;;;;;;5031993;28;20045;-72
2021/10/05 10:32:41;;;;;;;4.90;3.20;;;;;;;;;;5007692;28;20471;-74
2021/10/05 10:35:11;;;;;;;3.22;2.92;;;;;;;;;;5031340;28;20075;-72
2021/10/05 10:37:44;;;;;;;9.15;3.28;;;;;;;;;;4998639;28;20075;-72
2021/10/05 10:40:12;;;;;;;7.95;3.20;;;;;;;;;;5014478;28;20436;-74
2021/10/05 10:42:40;;;;;;;9.02;3.00;;;;;;;;;;5014540;28;20121;-70
2021/10/05 10:45:11;;;;;;;7.43;2.97;;;;;;;;;;4997879;28;20044;-71
2021/10/05 10:47:41;;;;;;;5.93;3.25;;;;;;;;;;5013940;28;20120;-72
2021/10/05 10:50:10;;;;;;;5.05;2.67;;;;;;;;;;5014503;28;20391;-71
2021/10/05 10:52:41;;;;;;;9.05;3.00;;;;;;;;;;5013931;28;20082;-71
2021/10/05 10:55:11;;;;;;;5.03;2.80;;;;;;;;;;5014852;28;20411;-72
2021/10/05 10:57:39;;;;;;;4.75;2.95;;;;;;;;;;5013833;28;20050;-74
2021/10/05 11:00:15;;;;;;;6.65;2.67;;;;;;;;;;5014112;28;20065;-74
2021/10/05 11:02:47;;;;;;;5.47;3.00;;;;;;;;;;5013991;28;20065;-72
2021/10/05 11:05:20;;;;;;;6.22;2.70;;;;;;;;;;5019476;28;20045;-71
2021/10/05 11:07:48;;;;;;;3.35;2.95;;;;;;;;;;5015724;28;20477;-74
2021/10/05 11:10:17;;;;;;;4.10;3.00;;;;;;;;;;5033987;28;20083;-74
2021/10/05 11:12:48;;;;;;;7.05;3.00;;;;;;;;;;5000935;28;20477;-74
2021/10/05 11:15:29;;;;;;;5.53;3.08;;;;;;;;;;5014179;28;20092;-73
2021/10/05 11:18:03;;;;;;;5.50;3.75;;;;;;;;;;5013293;28;20096;-70
2021/10/05 11:20:31;;;;;;;5.30;3.20;;;;;;;;;;5013778;28;20076;-70
2021/10/05 11:23:03;;;;;;;5.97;3.33;;;;;;;;;;4996206;28;20422;-72
2021/10/05 11:25:31;;;;;;;4.90;3.22;;;;;;;;;;4996195;28;20399;-71
2021/10/05 11:28:09;;;;;;;7.18;3.80;;;;;;;;;;5013836;28;20038;-71
2021/10/05 11:30:50;;;;;;;4.70;4.25;;;;;;;;;;5013514;28;20564;-71
2021/10/05 11:33:19;;;;;;;5.93;4.45;;;;;;;;;;4996796;28;20054;-71
2021/10/05 11:35:47;;;;;;;8.63;4.80;;;;;;;;;;5013168;28;20100;-72
2021/10/05 11:38:16;;;;;;;5.60;5.00;;;;;;;;;;5013453;28;20070;-71
2021/10/05 11:40:50;;;;;;;6.60;4.75;;;;;;;;;;5013379;28;20042;-71
2021/10/05 11:43:18;;;;;;;7.03;4.68;;;;;;;;;;5012845;28;20378;-71
2021/10/05 11:45:46;;;;;;;7.53;4.90;;;;;;;;;;5013225;28;20041;-71
2021/10/05 11:48:37;;;;;;;9.02;4.68;;;;;;;;;;5129720;23;20056;-74
2021/10/05 11:51:04;;;;;;;5.70;4.80;;;;;;;;;;5051041;28;20139;-74
2021/10/05 11:53:33;;;;;;;5.53;4.25;;;;;;;;;;5050658;28;20037;-71
2021/10/05 11:56:04;;;;;;;7.13;4.97;;;;;;;;;;5050851;28;20044;-71
2021/10/05 11:58:41;;;;;;;6.82;4.70;;;;;;;;;;5052464;28;20033;-71
2021/10/05 12:01:16;;;;;;;13.23;6.10;;;;;;;;;;5051811;28;20044;-72
2021/10/05 12:03:45;;;;;;;6.88;4.97;;;;;;;;;;5052214;28;20461;-72
2021/10/05 12:06:32;;;;;;;13.15;6.53;;;;;;;;;;5051271;28;20048;-72
2021/10/05 12:09:02;;;;;;;11.65;6.70;;;;;;;;;;5052478;28;20041;-73
2021/10/05 12:11:44;;;;;;;11.90;6.90;;;;;;;;;;5052347;28;20452;-72
2021/10/05 12:14:13;;;;;;;11.02;6.30;;;;;;;;;;5052270;28;20128;-70
2021/10/05 12:16:53;;;;;;;8.00;5.43;;;;;;;;;;5052347;28;20148;-73
2021/10/05 12:19:25;;;;;;;9.10;6.22;;;;;;;;;;5052425;28;20060;-73
2021/10/05 12:21:54;;;;;;;8.65;5.70;;;;;;;;;;5052540;28;20139;-70
2021/10/05 12:24:22;;;;;;;10.85;6.40;;;;;;;;;;5052065;28;20044;-76
2021/10/05 12:26:50;;;;;;;8.55;5.90;;;;;;;;;;5052437;28;20071;-71
2021/10/05 12:29:28;;;;;;;8.05;6.28;;;;;;;;;;5052708;28;20045;-71
2021/10/05 12:31:58;;;;;;;8.80;5.93;;;;;;;;;;5050782;28;20037;-74
2021/10/05 12:34:37;;;;;;;8.63;6.15;;;;;;;;;;5052163;28;20060;-74
2021/10/05 12:37:09;;;;;;;6.57;5.70;;;;;;;;;;5054975;28;20041;-71
2021/10/05 12:39:59;;;;;;;9.82;6.07;;;;;;;;;;5055245;28;20037;-74
2021/10/05 12:42:37;;;;;;;9.75;6.70;;;;;;;;;;5055486;28;20700;-71
2021/10/05 12:45:16;;;;;;;11.50;6.63;;;;;;;;;;5054897;28;20041;-72
2021/10/05 12:47:52;;;;;;;12.48;6.07;;;;;;;;;;5055512;28;20132;-72
2021/10/05 12:50:21;;;;;;;8.50;5.75;;;;;;;;;;5055856;28;20045;-75
2021/10/05 12:52:56;;;;;;;10.43;6.38;;;;;;;;;;5054843;28;20108;-72
2021/10/05 12:55:27;;;;;;;8.05;6.00;;;;;;;;;;5055878;28;20119;-73
2021/10/05 12:57:56;;;;;;;;;;;;;;;;;;5056229;28;20041;-71
2021/10/05 13:00:24;;;;;;;8.02;5.68;;;;;;;;;;5054840;28;19967;-72
2021/10/05 13:02:52;;;;;;;8.60;5.70;;;;;;;;;;5055577;28;20417;-72
2021/10/05 13:05:21;;;;;;;10.25;5.97;;;;;;;;;;5056086;28;20402;-71
2021/10/05 13:07:52;;;;;;;9.55;5.88;;;;;;;;;;5055012;28;20045;-75
2021/10/05 13:10:22;;;;;;;7.25;5.78;;;;;;;;;;5056070;28;20056;-72
2021/10/05 13:12:50;;;;;;;9.23;6.20;;;;;;;;;;5055836;28;20052;-74
2021/10/05 13:15:28;;;;;;;11.10;5.40;;;;;;;;;;5055949;28;20049;-72
2021/10/05 13:17:56;;;;;;;8.15;5.72;;;;;;;;;;5055368;28;20450;-75
2021/10/05 13:20:25;;;;;;;11.57;6.30;;;;;;;;;;5055899;28;20043;-74
2021/10/05 13:22:54;;;;;;;9.93;6.40;;;;;;;;;;5055881;28;20460;-74
2021/10/05 13:25:24;;;;;;;7.63;6.20;;;;;;;;;;5055627;28;20115;-71
2021/10/05 13:27:51;;;;;;;13.48;6.40;;;;;;;;;;5055233;28;20119;-73
2021/10/05 13:30:19;;;;;;;10.75;5.93;;;;;;;;;;5053946;28;20135;-73
2021/10/05 13:32:47;;;;;;;7.60;5.45;;;;;;;;;;5055138;28;20045;-73
2021/10/05 13:35:19;;;;;;;55.15;5.53;;;;;;;;;;5055493;28;20068;-72
2021/10/05 13:37:47;;;;;;;24.35;4.05;;;;;;;;;;5055149;28;20033;-76
2021/10/05 13:40:25;;;;;;;12.88;2.75;;;;;;;;;;5053645;28;20057;-77
2021/10/05 13:42:56;;;;;;;12.38;4.05;;;;;;;;;;5055550;28;20053;-75
2021/10/05 13:45:27;;;;;;;15.27;4.00;;;;;;;;;;5055037;28;20063;-76
2021/10/05 13:47:55;;;;;;;17.77;4.93;;;;;;;;;;5036243;28;20068;-75
2021/10/05 13:50:22;;;;;;;12.38;5.07;;;;;;;;;;5055146;28;20040;-75
2021/10/05 13:52:50;;;;;;;14.63;5.68;;;;;;;;;;5037419;28;20049;-76
2021/10/05 13:55:18;;;;;;;26.38;6.70;;;;;;;;;;5053948;28;20044;-76
2021/10/05 13:57:46;;;;;;;16.98;6.53;;;;;;;;;;5055126;28;20124;-76
2021/10/05 14:00:14;;;;;;;13.23;7.40;;;;;;;;;;5054826;28;20448;-80
2021/10/05 14:02:41;;;;;;;22.58;8.40;;;;;;;;;;5054886;28;20048;-75
2021/10/05 14:05:12;;;;;;;17.05;8.80;;;;;;;;;;5037231;28;20099;-75
2021/10/05 14:07:40;;;;;;;16.25;9.15;;;;;;;;;;5054867;28;20065;-76
2021/10/05 14:10:09;;;;;;;15.23;9.38;;;;;;;;;;5054743;28;20040;-78
2021/10/05 14:12:37;;;;;;;14.55;8.35;;;;;;;;;;5036983;28;20053;-75
2021/10/05 14:15:06;;;;;;;14.23;8.50;;;;;;;;;;5054130;28;20493;-75
2021/10/05 14:17:40;;;;;;;12.23;7.60;;;;;;;;;;5053097;28;20125;-75
2021/10/05 14:20:11;;;;;;;10.43;7.72;;;;;;;;;;5053886;28;20117;-75
2021/10/05 14:22:41;;;;;;;13.55;7.55;;;;;;;;;;5054368;28;20037;-76
2021/10/05 14:25:10;;;;;;;10.85;6.90;;;;;;;;;;5054261;28;20041;-75
2021/10/05 14:27:37;;;;;;;10.98;7.10;;;;;;;;;;5054110;28;20045;-75
2021/10/05 14:30:05;;;;;;;7.88;6.40;;;;;;;;;;5053877;28;20051;-75
2021/10/05 14:32:34;;;;;;;9.88;6.93;;;;;;;;;;5054002;28;20577;-77
2021/10/05 14:35:01;;;;;;;11.68;7.10;;;;;;;;;;5053016;28;20049;-78
2021/10/05 14:37:29;;;;;;;11.65;7.10;;;;;;;;;;5053306;28;20095;-74
2021/10/05 14:39:56;;;;;;;14.35;6.75;;;;;;;;;;5052634;28;20079;-75
2021/10/05 14:42:24;;;;;;;15.38;6.32;;;;;;;;;;5052534;28;20044;-74
2021/10/05 14:44:51;;;;;;;9.88;6.30;;;;;;;;;;5053942;28;20375;-76
2021/10/05 14:47:19;;;;;;;10.95;6.18;;;;;;;;;;5054089;28;20099;-74
2021/10/05 14:49:48;;;;;;;10.77;5.07;;;;;;;;;;5053518;28;20125;-76